Time;durP1;ratioP1;P1;durP2;ratioP2;P2;SDS_P1;SDS_P2;PMS_P1;PMS_P2;Temp;Humidity;BMP_temperature;BMP_pressure;BME280_temperature;BME280_humidity;BME280_pressure;Samples;Min_cycle;Max_cycle;Signal;HPM_P1;HPM_P2
2023/12/08 14:37:39;;;;;;;;;;;-2.10;99.90;;;;;;5133282;27;19915;-92
2023/12/08 14:40:05;;;;;;;;;;;-2.10;99.90;;;;;;5114339;28;20006;-92
2023/12/08 14:42:31;;;;;;;;;;;-2.10;99.90;;;;;;5102834;28;19947;-94
2023/12/08 14:45:23;;;;;;;;;;;-2.00;99.90;;;;;;5095405;28;19919;-94
2023/12/08 14:47:49;;;;;;;;;;;-1.90;99.90;;;;;;5112526;28;19915;-94
2023/12/08 14:50:14;;;;;;;;;;;-1.80;99.90;;;;;;5094492;28;19908;-93
2023/12/08 14:52:40;;;;;;;;;;;-1.70;99.90;;;;;;5114494;28;19908;-92
2023/12/08 14:55:19;;;;;;;;;;;;;;;;;;;;;
2023/12/08 15:00:49;;;;;;;;;;;-1.50;99.90;;;;;;5108996;28;19919;-94
2023/12/08 15:06:19;;;;;;;;;;;-1.40;99.90;;;;;;5092530;28;19946;-96
2023/12/08 15:09:19;;;;;;;;;;;-1.30;99.90;;;;;;5093204;28;19909;-94
2023/12/08 15:11:56;;;;;;;;;;;-1.30;99.90;;;;;;5077007;28;19912;-92
2023/12/08 15:14:42;;;;;;;;;;;-1.20;99.90;;;;;;5092304;28;19948;-94
2023/12/08 15:17:19;;;;;;;;;;;-1.20;99.90;;;;;;5073839;28;19912;-93
2023/12/08 15:19:47;;;;;;;;;;;-1.20;99.90;;;;;;5091636;28;19909;-90
2023/12/08 15:22:36;;;;;;;;;;;-1.20;99.90;;;;;;5074739;28;19916;-93
2023/12/08 15:25:07;;;;;;;;;;;-1.10;99.90;;;;;;5090445;28;19908;-93
2023/12/08 15:28:41;;;;;;;;;;;-1.10;99.90;;;;;;5093558;28;20014;-95
2023/12/08 15:30:41;;;;;;;;;;;-1.10;99.90;;;;;;5097263;28;20275;-93
2023/12/08 15:33:07;;;;;;;;;;;-1.10;99.90;;;;;;5094273;28;19991;-93
2023/12/08 15:35:33;;;;;;;;;;;-1.10;99.90;;;;;;5093135;28;19920;-94
2023/12/08 15:37:59;;;;;;;;;;;-1.10;99.90;;;;;;5094115;28;19908;-92
2023/12/08 15:40:24;;;;;;;;;;;-1.10;99.90;;;;;;5124096;28;20372;-94
2023/12/08 15:42:50;;;;;;;;;;;-1.10;99.90;;;;;;5114172;28;19933;-94
2023/12/08 15:45:16;;;;;;;;;;;-1.10;99.90;;;;;;5113914;28;19986;-93
2023/12/08 15:47:42;;;;;;;;;;;-1.00;99.90;;;;;;5125684;28;19998;-94
2023/12/08 15:50:08;;;;;;;;;;;-1.10;99.90;;;;;;5100609;28;19955;-92
2023/12/08 15:52:34;;;;;;;;;;;-1.10;99.90;;;;;;5112797;28;19915;-93
2023/12/08 15:54:59;;;;;;;;;;;-1.10;99.90;;;;;;5079561;28;19908;-93
2023/12/08 15:57:25;;;;;;;;;;;-1.10;99.90;;;;;;5080331;28;19908;-93
2023/12/08 15:59:51;;;;;;;;;;;-1.10;99.90;;;;;;5079459;28;19912;-92
2023/12/08 16:02:16;;;;;;;;;;;-1.10;99.90;;;;;;5080329;28;19920;-92
2023/12/08 16:04:42;;;;;;;;;;;-1.10;99.90;;;;;;5079099;28;20003;-93
2023/12/08 16:07:07;;;;;;;;;;;-1.10;99.90;;;;;;5078998;28;19912;-93
2023/12/08 16:09:33;;;;;;;;;;;-1.10;99.90;;;;;;5078855;28;20007;-93
2023/12/08 16:11:58;;;;;;;;;;;-1.10;99.90;;;;;;5079314;28;20393;-92
2023/12/08 16:14:24;;;;;;;;;;;-1.00;99.90;;;;;;5079012;28;19908;-93
2023/12/08 16:16:50;;;;;;;;;;;-1.00;99.90;;;;;;5082227;28;19912;-93
2023/12/08 16:19:15;;;;;;;;;;;-1.00;99.90;;;;;;5079533;28;20356;-93
2023/12/08 16:21:41;;;;;;;;;;;-1.00;99.90;;;;;;5078924;28;19908;-95
2023/12/08 16:24:07;;;;;;;;;;;-1.10;99.90;;;;;;5078895;28;19973;-93
2023/12/08 16:26:35;;;;;;;;;;;-1.00;99.90;;;;;;5079491;28;19920;-94
2023/12/08 16:29:01;;;;;;;;;;;-1.00;99.90;;;;;;5085450;28;19912;-93
2023/12/08 16:31:28;;;;;;;;;;;-1.00;99.90;;;;;;5086448;28;20478;-94
2023/12/08 16:33:53;;;;;;;;;;;-1.00;99.90;;;;;;5079088;28;20002;-94
2023/12/08 16:36:19;;;;;;;;;;;-1.00;99.90;;;;;;5067829;28;19967;-93
2023/12/08 16:38:45;;;;;;;;;;;-1.00;99.90;;;;;;5055508;28;20395;-93
2023/12/08 16:41:11;;;;;;;;;;;-1.00;99.90;;;;;;5055396;28;19909;-95
2023/12/08 17:16:05;;;;;;;;;;;-2.00;99.90;;;;;;5072864;28;19919;-95
